sensor_id;sensor_type;location;lat;lon;timestamp;temperature;humidity
69731;SHT31;56996;48.138;11.538;2022-09-09T00:00:23;17.80;62.45
69731;SHT31;56996;48.138;11.538;2022-09-09T00:02:55;17.76;62.63
69731;SHT31;56996;48.138;11.538;2022-09-09T00:05:42;17.73;62.75
69731;SHT31;56996;48.138;11.538;2022-09-09T00:08:52;17.69;62.86
69731;SHT31;56996;48.138;11.538;2022-09-09T00:11:29;17.69;62.96
69731;SHT31;56996;48.138;11.538;2022-09-09T00:14:10;17.67;62.96
69731;SHT31;56996;48.138;11.538;2022-09-09T00:16:51;17.67;63.10
69731;SHT31;56996;48.138;11.538;2022-09-09T00:19:24;17.66;63.19
69731;SHT31;56996;48.138;11.538;2022-09-09T00:22:20;17.68;63.19
69731;SHT31;56996;48.138;11.538;2022-09-09T00:24:51;17.70;63.18
69731;SHT31;56996;48.138;11.538;2022-09-09T00:27:25;17.72;63.18
69731;SHT31;56996;48.138;11.538;2022-09-09T00:32:37;17.75;63.10
69731;SHT31;56996;48.138;11.538;2022-09-09T00:35:14;17.76;63.10
69731;SHT31;56996;48.138;11.538;2022-09-09T00:37:48;17.75;63.16
69731;SHT31;56996;48.138;11.538;2022-09-09T00:48:54;17.70;63.37
69731;SHT31;56996;48.138;11.538;2022-09-09T00:51:30;17.70;63.37
69731;SHT31;56996;48.138;11.538;2022-09-09T00:57:28;17.69;63.50
69731;SHT31;56996;48.138;11.538;2022-09-09T01:00:18;17.67;63.59
69731;SHT31;56996;48.138;11.538;2022-09-09T01:05:39;17.60;63.87
69731;SHT31;56996;48.138;11.538;2022-09-09T01:08:48;17.57;64.04
69731;SHT31;56996;48.138;11.538;2022-09-09T01:11:52;17.55;64.18
69731;SHT31;56996;48.138;11.538;2022-09-09T01:14:55;17.56;64.27
69731;SHT31;56996;48.138;11.538;2022-09-09T01:20:18;17.57;64.27
69731;SHT31;56996;48.138;11.538;2022-09-09T01:28:22;17.63;64.39
69731;SHT31;56996;48.138;11.538;2022-09-09T01:30:57;17.64;64.39
69731;SHT31;56996;48.138;11.538;2022-09-09T01:33:29;17.65;64.43
69731;SHT31;56996;48.138;11.538;2022-09-09T01:36:00;17.65;64.48
69731;SHT31;56996;48.138;11.538;2022-09-09T01:38:42;17.65;64.56
69731;SHT31;56996;48.138;11.538;2022-09-09T01:41:09;17.64;64.61
69731;SHT31;56996;48.138;11.538;2022-09-09T01:43:48;17.63;64.67
69731;SHT31;56996;48.138;11.538;2022-09-09T01:46:15;17.62;64.75
69731;SHT31;56996;48.138;11.538;2022-09-09T01:48:42;17.61;64.89
69731;SHT31;56996;48.138;11.538;2022-09-09T01:51:10;17.60;65.06
69731;SHT31;56996;48.138;11.538;2022-09-09T01:53:37;17.58;65.20
69731;SHT31;56996;48.138;11.538;2022-09-09T02:01:58;17.47;65.79
69731;SHT31;56996;48.138;11.538;2022-09-09T02:04:45;17.43;65.84
69731;SHT31;56996;48.138;11.538;2022-09-09T02:07:39;17.41;65.97
69731;SHT31;56996;48.138;11.538;2022-09-09T02:10:38;17.38;66.12
69731;SHT31;56996;48.138;11.538;2022-09-09T02:13:25;17.36;66.27
69731;SHT31;56996;48.138;11.538;2022-09-09T02:18:25;17.34;66.37
69731;SHT31;56996;48.138;11.538;2022-09-09T02:21:11;17.34;66.38
69731;SHT31;56996;48.138;11.538;2022-09-09T02:23:40;17.34;66.40
69731;SHT31;56996;48.138;11.538;2022-09-09T02:26:10;17.34;66.49
69731;SHT31;56996;48.138;11.538;2022-09-09T02:28:46;17.33;66.62
69731;SHT31;56996;48.138;11.538;2022-09-09T02:31:17;17.31;66.81
69731;SHT31;56996;48.138;11.538;2022-09-09T02:33:48;17.29;67.00
69731;SHT31;56996;48.138;11.538;2022-09-09T02:36:22;17.26;67.19
69731;SHT31;56996;48.138;11.538;2022-09-09T02:38:50;17.26;67.29
69731;SHT31;56996;48.138;11.538;2022-09-09T02:41:32;17.25;67.37
69731;SHT31;56996;48.138;11.538;2022-09-09T02:44:05;17.24;67.46
69731;SHT31;56996;48.138;11.538;2022-09-09T02:53:06;17.19;67.79
69731;SHT31;56996;48.138;11.538;2022-09-09T02:58:30;17.15;67.85
69731;SHT31;56996;48.138;11.538;2022-09-09T03:01:02;17.15;67.80
69731;SHT31;56996;48.138;11.538;2022-09-09T03:03:29;17.15;67.83
69731;SHT31;56996;48.138;11.538;2022-09-09T03:05:57;17.14;67.89
69731;SHT31;56996;48.138;11.538;2022-09-09T03:08:25;17.12;67.90
69731;SHT31;56996;48.138;11.538;2022-09-09T03:10:54;17.12;67.90
69731;SHT31;56996;48.138;11.538;2022-09-09T03:13:23;17.12;67.97
69731;SHT31;56996;48.138;11.538;2022-09-09T03:15:51;17.10;68.03
69731;SHT31;56996;48.138;11.538;2022-09-09T03:18:18;17.09;68.21
69731;SHT31;56996;48.138;11.538;2022-09-09T03:20:47;17.04;68.35
69731;SHT31;56996;48.138;11.538;2022-09-09T03:23:15;17.00;68.57
69731;SHT31;56996;48.138;11.538;2022-09-09T03:25:51;16.97;68.67
69731;SHT31;56996;48.138;11.538;2022-09-09T03:28:23;16.94;68.78
69731;SHT31;56996;48.138;11.538;2022-09-09T03:30:58;16.91;68.90
69731;SHT31;56996;48.138;11.538;2022-09-09T03:33:33;16.87;69.10
69731;SHT31;56996;48.138;11.538;2022-09-09T03:36:02;16.84;69.22
69731;SHT31;56996;48.138;11.538;2022-09-09T03:38:30;16.80;69.33
69731;SHT31;56996;48.138;11.538;2022-09-09T03:40:58;16.76;69.48
69731;SHT31;56996;48.138;11.538;2022-09-09T03:43:28;16.73;69.58
69731;SHT31;56996;48.138;11.538;2022-09-09T03:45:56;16.71;69.69
69731;SHT31;56996;48.138;11.538;2022-09-09T03:48:24;16.69;69.78
69731;SHT31;56996;48.138;11.538;2022-09-09T03:50:55;16.70;69.76
69731;SHT31;56996;48.138;11.538;2022-09-09T03:53:27;16.71;69.82
69731;SHT31;56996;48.138;11.538;2022-09-09T03:55:55;16.71;69.86
69731;SHT31;56996;48.138;11.538;2022-09-09T03:58:27;16.73;69.86
69731;SHT31;56996;48.138;11.538;2022-09-09T04:01:00;16.74;69.86
69731;SHT31;56996;48.138;11.538;2022-09-09T04:03:44;16.76;69.89
69731;SHT31;56996;48.138;11.538;2022-09-09T04:06:12;16.77;69.90
69731;SHT31;56996;48.138;11.538;2022-09-09T04:08:42;16.79;69.90
69731;SHT31;56996;48.138;11.538;2022-09-09T04:11:12;16.80;69.89
69731;SHT31;56996;48.138;11.538;2022-09-09T04:13:39;16.82;69.89
69731;SHT31;56996;48.138;11.538;2022-09-09T04:16:09;16.84;69.90
69731;SHT31;56996;48.138;11.538;2022-09-09T04:18:40;16.85;69.89
69731;SHT31;56996;48.138;11.538;2022-09-09T04:21:08;16.86;69.86
69731;SHT31;56996;48.138;11.538;2022-09-09T04:23:36;16.85;69.90
69731;SHT31;56996;48.138;11.538;2022-09-09T04:26:03;16.87;69.81
69731;SHT31;56996;48.138;11.538;2022-09-09T04:28:33;16.86;69.80
69731;SHT31;56996;48.138;11.538;2022-09-09T04:31:06;16.86;69.77
69731;SHT31;56996;48.138;11.538;2022-09-09T04:33:56;16.84;69.75
69731;SHT31;56996;48.138;11.538;2022-09-09T04:36:23;16.84;69.75
69731;SHT31;56996;48.138;11.538;2022-09-09T04:38:53;16.84;69.78
69731;SHT31;56996;48.138;11.538;2022-09-09T04:41:20;16.82;69.86
69731;SHT31;56996;48.138;11.538;2022-09-09T04:43:49;16.80;69.92
69731;SHT31;56996;48.138;11.538;2022-09-09T04:46:16;16.79;70.00
69731;SHT31;56996;48.138;11.538;2022-09-09T04:48:43;16.79;70.00
69731;SHT31;56996;48.138;11.538;2022-09-09T04:51:12;16.77;70.03
69731;SHT31;56996;48.138;11.538;2022-09-09T04:53:40;16.75;70.19
69731;SHT31;56996;48.138;11.538;2022-09-09T04:56:11;16.73;70.30
69731;SHT31;56996;48.138;11.538;2022-09-09T04:58:45;16.73;70.34
69731;SHT31;56996;48.138;11.538;2022-09-09T05:01:13;16.72;70.39
69731;SHT31;56996;48.138;11.538;2022-09-09T05:03:47;16.72;70.48
69731;SHT31;56996;48.138;11.538;2022-09-09T05:06:17;16.70;70.50
69731;SHT31;56996;48.138;11.538;2022-09-09T05:08:48;16.73;70.51
69731;SHT31;56996;48.138;11.538;2022-09-09T05:11:22;16.74;70.53
69731;SHT31;56996;48.138;11.538;2022-09-09T05:13:59;16.72;70.65
69731;SHT31;56996;48.138;11.538;2022-09-09T05:16:28;16.68;70.74
69731;SHT31;56996;48.138;11.538;2022-09-09T05:18:56;16.67;70.80
69731;SHT31;56996;48.138;11.538;2022-09-09T05:21:24;16.67;70.86
69731;SHT31;56996;48.138;11.538;2022-09-09T05:23:52;16.66;70.94
69731;SHT31;56996;48.138;11.538;2022-09-09T05:26:20;16.63;71.00
69731;SHT31;56996;48.138;11.538;2022-09-09T05:28:49;16.62;70.99
69731;SHT31;56996;48.138;11.538;2022-09-09T05:31:17;16.61;71.03
69731;SHT31;56996;48.138;11.538;2022-09-09T05:33:47;16.59;71.04
69731;SHT31;56996;48.138;11.538;2022-09-09T05:36:17;16.60;71.07
69731;SHT31;56996;48.138;11.538;2022-09-09T05:38:49;16.60;71.06
69731;SHT31;56996;48.138;11.538;2022-09-09T05:41:17;16.62;70.93
69731;SHT31;56996;48.138;11.538;2022-09-09T05:43:46;16.61;70.90
69731;SHT31;56996;48.138;11.538;2022-09-09T05:46:16;16.62;70.89
69731;SHT31;56996;48.138;11.538;2022-09-09T05:48:47;16.62;70.90
69731;SHT31;56996;48.138;11.538;2022-09-09T05:51:19;16.63;70.90
69731;SHT31;56996;48.138;11.538;2022-09-09T05:53:49;16.65;70.86
69731;SHT31;56996;48.138;11.538;2022-09-09T05:56:22;16.65;70.86
69731;SHT31;56996;48.138;11.538;2022-09-09T05:58:52;16.67;70.89
69731;SHT31;56996;48.138;11.538;2022-09-09T06:01:23;16.70;70.85
69731;SHT31;56996;48.138;11.538;2022-09-09T06:03:59;16.76;70.71
69731;SHT31;56996;48.138;11.538;2022-09-09T06:06:27;16.80;70.56
69731;SHT31;56996;48.138;11.538;2022-09-09T06:09:04;16.85;70.47
69731;SHT31;56996;48.138;11.538;2022-09-09T06:11:37;16.88;70.28
69731;SHT31;56996;48.138;11.538;2022-09-09T06:14:06;16.90;70.21
69731;SHT31;56996;48.138;11.538;2022-09-09T06:16:34;16.95;70.08
69731;SHT31;56996;48.138;11.538;2022-09-09T06:19:05;16.99;69.75
69731;SHT31;56996;48.138;11.538;2022-09-09T06:21:36;17.05;69.48
69731;SHT31;56996;48.138;11.538;2022-09-09T06:24:05;17.11;69.17
69731;SHT31;56996;48.138;11.538;2022-09-09T06:26:38;17.16;68.93
69731;SHT31;56996;48.138;11.538;2022-09-09T06:29:11;17.19;68.87
69731;SHT31;56996;48.138;11.538;2022-09-09T06:31:38;17.23;68.72
69731;SHT31;56996;48.138;11.538;2022-09-09T06:34:11;17.27;68.48
69731;SHT31;56996;48.138;11.538;2022-09-09T06:36:41;17.29;68.42
69731;SHT31;56996;48.138;11.538;2022-09-09T06:39:08;17.33;68.31
69731;SHT31;56996;48.138;11.538;2022-09-09T06:41:40;17.37;68.15
69731;SHT31;56996;48.138;11.538;2022-09-09T06:44:21;17.40;68.04
69731;SHT31;56996;48.138;11.538;2022-09-09T06:46:49;17.45;67.98
69731;SHT31;56996;48.138;11.538;2022-09-09T06:49:16;17.49;67.88
69731;SHT31;56996;48.138;11.538;2022-09-09T06:51:43;17.55;67.75
69731;SHT31;56996;48.138;11.538;2022-09-09T06:54:11;17.60;67.63
69731;SHT31;56996;48.138;11.538;2022-09-09T06:56:42;17.66;67.48
69731;SHT31;56996;48.138;11.538;2022-09-09T06:59:18;17.72;67.34
69731;SHT31;56996;48.138;11.538;2022-09-09T07:01:46;17.78;67.19
69731;SHT31;56996;48.138;11.538;2022-09-09T07:04:18;17.82;67.11
69731;SHT31;56996;48.138;11.538;2022-09-09T07:06:45;17.85;67.03
69731;SHT31;56996;48.138;11.538;2022-09-09T07:09:18;17.90;67.04
69731;SHT31;56996;48.138;11.538;2022-09-09T07:11:48;17.93;67.00
69731;SHT31;56996;48.138;11.538;2022-09-09T07:14:21;17.96;67.06
69731;SHT31;56996;48.138;11.538;2022-09-09T07:16:57;17.97;67.31
69731;SHT31;56996;48.138;11.538;2022-09-09T07:19:26;18.00;67.84
69731;SHT31;56996;48.138;11.538;2022-09-09T07:21:54;18.02;67.73
69731;SHT31;56996;48.138;11.538;2022-09-09T07:24:21;18.00;67.78
69731;SHT31;56996;48.138;11.538;2022-09-09T07:26:48;17.96;68.06
69731;SHT31;56996;48.138;11.538;2022-09-09T07:29:15;17.94;68.28
69731;SHT31;56996;48.138;11.538;2022-09-09T07:31:46;17.95;68.53
69731;SHT31;56996;48.138;11.538;2022-09-09T07:34:18;18.00;68.83
69731;SHT31;56996;48.138;11.538;2022-09-09T07:36:45;18.07;68.58
69731;SHT31;56996;48.138;11.538;2022-09-09T07:39:13;18.14;68.67
69731;SHT31;56996;48.138;11.538;2022-09-09T07:41:45;18.27;68.39
69731;SHT31;56996;48.138;11.538;2022-09-09T07:44:19;18.44;67.71
69731;SHT31;56996;48.138;11.538;2022-09-09T07:46:53;18.59;67.13
69731;SHT31;56996;48.138;11.538;2022-09-09T07:49:23;18.68;66.83
69731;SHT31;56996;48.138;11.538;2022-09-09T07:51:58;18.76;66.41
69731;SHT31;56996;48.138;11.538;2022-09-09T07:54:25;18.83;66.35
69731;SHT31;56996;48.138;11.538;2022-09-09T07:56:53;18.86;66.08
69731;SHT31;56996;48.138;11.538;2022-09-09T07:59:21;18.87;66.01
69731;SHT31;56996;48.138;11.538;2022-09-09T08:01:49;18.87;65.79
69731;SHT31;56996;48.138;11.538;2022-09-09T08:04:24;18.88;65.72
69731;SHT31;56996;48.138;11.538;2022-09-09T08:06:53;18.94;65.63
69731;SHT31;56996;48.138;11.538;2022-09-09T08:09:26;18.96;65.37
69731;SHT31;56996;48.138;11.538;2022-09-09T08:12:09;18.99;65.32
69731;SHT31;56996;48.138;11.538;2022-09-09T08:14:39;19.06;65.13
69731;SHT31;56996;48.138;11.538;2022-09-09T08:17:06;19.10;64.93
69731;SHT31;56996;48.138;11.538;2022-09-09T08:19:33;19.15;65.06
69731;SHT31;56996;48.138;11.538;2022-09-09T08:22:06;19.25;65.14
69731;SHT31;56996;48.138;11.538;2022-09-09T08:24:35;19.32;64.80
69731;SHT31;56996;48.138;11.538;2022-09-09T08:27:02;19.37;64.69
69731;SHT31;56996;48.138;11.538;2022-09-09T08:29:29;19.42;64.54
69731;SHT31;56996;48.138;11.538;2022-09-09T08:31:57;19.53;64.49
69731;SHT31;56996;48.138;11.538;2022-09-09T08:34:25;19.68;64.18
69731;SHT31;56996;48.138;11.538;2022-09-09T08:36:54;19.77;63.77
69731;SHT31;56996;48.138;11.538;2022-09-09T08:39:27;19.84;63.76
69731;SHT31;56996;48.138;11.538;2022-09-09T08:48:03;19.79;63.72
69731;SHT31;56996;48.138;11.538;2022-09-09T08:51:33;19.71;64.58
69731;SHT31;56996;48.138;11.538;2022-09-09T08:54:00;19.62;65.16
69731;SHT31;56996;48.138;11.538;2022-09-09T08:56:31;19.49;66.04
69731;SHT31;56996;48.138;11.538;2022-09-09T08:59:00;19.32;66.13
69731;SHT31;56996;48.138;11.538;2022-09-09T09:07:59;19.49;64.97
69731;SHT31;56996;48.138;11.538;2022-09-09T09:13:24;19.65;63.73
69731;SHT31;56996;48.138;11.538;2022-09-09T09:16:14;19.72;63.17
69731;SHT31;56996;48.138;11.538;2022-09-09T09:18:52;19.83;63.18
69731;SHT31;56996;48.138;11.538;2022-09-09T09:21:28;19.86;62.06
69731;SHT31;56996;48.138;11.538;2022-09-09T09:24:16;19.93;61.60
69731;SHT31;56996;48.138;11.538;2022-09-09T09:26:48;19.98;62.03
69731;SHT31;56996;48.138;11.538;2022-09-09T09:29:17;20.06;62.49
69731;SHT31;56996;48.138;11.538;2022-09-09T09:31:51;20.21;62.33
69731;SHT31;56996;48.138;11.538;2022-09-09T09:34:23;20.32;61.60
69731;SHT31;56996;48.138;11.538;2022-09-09T09:36:54;20.39;61.73
69731;SHT31;56996;48.138;11.538;2022-09-09T09:39:29;20.51;61.93
69731;SHT31;56996;48.138;11.538;2022-09-09T09:42:24;20.59;61.14
69731;SHT31;56996;48.138;11.538;2022-09-09T09:44:53;20.62;61.35
69731;SHT31;56996;48.138;11.538;2022-09-09T09:47:21;20.64;61.23
69731;SHT31;56996;48.138;11.538;2022-09-09T09:50:03;20.56;61.35
69731;SHT31;56996;48.138;11.538;2022-09-09T09:52:34;20.53;61.72
69731;SHT31;56996;48.138;11.538;2022-09-09T09:55:03;20.51;61.68
69731;SHT31;56996;48.138;11.538;2022-09-09T09:57:34;20.44;62.00
69731;SHT31;56996;48.138;11.538;2022-09-09T10:02:48;20.34;62.88
69731;SHT31;56996;48.138;11.538;2022-09-09T10:05:21;20.32;63.25
69731;SHT31;56996;48.138;11.538;2022-09-09T10:08:08;20.27;62.86
69731;SHT31;56996;48.138;11.538;2022-09-09T10:16:32;20.04;63.02
69731;SHT31;56996;48.138;11.538;2022-09-09T10:19:15;19.98;63.02
69731;SHT31;56996;48.138;11.538;2022-09-09T10:25:14;19.94;63.01
69731;SHT31;56996;48.138;11.538;2022-09-09T10:27:50;19.89;63.15
69731;SHT31;56996;48.138;11.538;2022-09-09T10:34:15;19.79;63.39
69731;SHT31;56996;48.138;11.538;2022-09-09T10:37:53;19.84;63.39
69731;SHT31;56996;48.138;11.538;2022-09-09T10:50:09;19.97;61.32
69731;SHT31;56996;48.138;11.538;2022-09-09T10:56:09;20.02;61.22
69731;SHT31;56996;48.138;11.538;2022-09-09T11:01:29;20.28;61.08
69731;SHT31;56996;48.138;11.538;2022-09-09T11:04:20;20.46;60.40
69731;SHT31;56996;48.138;11.538;2022-09-09T11:07:06;20.73;59.77
69731;SHT31;56996;48.138;11.538;2022-09-09T11:09:42;20.94;59.25
69731;SHT31;56996;48.138;11.538;2022-09-09T11:12:17;21.16;58.75
69731;SHT31;56996;48.138;11.538;2022-09-09T11:14:51;21.32;57.68
69731;SHT31;56996;48.138;11.538;2022-09-09T11:17:36;21.32;57.13
69731;SHT31;56996;48.138;11.538;2022-09-09T11:20:13;21.38;57.08
69731;SHT31;56996;48.138;11.538;2022-09-09T11:26:04;21.72;57.12
69731;SHT31;56996;48.138;11.538;2022-09-09T11:32:08;21.80;56.70
69731;SHT31;56996;48.138;11.538;2022-09-09T11:34:37;21.85;56.79
69731;SHT31;56996;48.138;11.538;2022-09-09T11:41:02;22.18;56.33
69731;SHT31;56996;48.138;11.538;2022-09-09T11:43:37;22.29;56.16
69731;SHT31;56996;48.138;11.538;2022-09-09T11:46:13;22.38;55.95
69731;SHT31;56996;48.138;11.538;2022-09-09T11:48:44;22.40;55.21
69731;SHT31;56996;48.138;11.538;2022-09-09T11:53:51;22.24;54.73
69731;SHT31;56996;48.138;11.538;2022-09-09T11:56:25;22.11;54.98
69731;SHT31;56996;48.138;11.538;2022-09-09T12:02:27;21.86;54.51
69731;SHT31;56996;48.138;11.538;2022-09-09T12:04:59;21.77;54.54
69731;SHT31;56996;48.138;11.538;2022-09-09T12:15:55;21.85;54.49
69731;SHT31;56996;48.138;11.538;2022-09-09T12:18:34;21.85;54.59
69731;SHT31;56996;48.138;11.538;2022-09-09T12:23:57;22.08;54.16
69731;SHT31;56996;48.138;11.538;2022-09-09T12:29:46;22.16;53.78
69731;SHT31;56996;48.138;11.538;2022-09-09T12:32:24;22.23;53.76
69731;SHT31;56996;48.138;11.538;2022-09-09T12:34:55;22.33;53.42
69731;SHT31;56996;48.138;11.538;2022-09-09T12:40:22;22.52;53.30
69731;SHT31;56996;48.138;11.538;2022-09-09T12:42:54;22.57;53.06
69731;SHT31;56996;48.138;11.538;2022-09-09T12:45:31;22.52;53.15
69731;SHT31;56996;48.138;11.538;2022-09-09T12:50:33;22.64;52.66
69731;SHT31;56996;48.138;11.538;2022-09-09T12:53:08;22.65;52.69
69731;SHT31;56996;48.138;11.538;2022-09-09T12:55:48;22.80;52.67
69731;SHT31;56996;48.138;11.538;2022-09-09T12:58:20;22.97;52.56
69731;SHT31;56996;48.138;11.538;2022-09-09T13:00:54;22.95;52.45
69731;SHT31;56996;48.138;11.538;2022-09-09T13:03:23;22.80;52.77
69731;SHT31;56996;48.138;11.538;2022-09-09T13:05:54;22.74;52.84
69731;SHT31;56996;48.138;11.538;2022-09-09T13:08:28;22.57;53.00
69731;SHT31;56996;48.138;11.538;2022-09-09T13:11:02;22.48;53.35
69731;SHT31;56996;48.138;11.538;2022-09-09T13:13:36;22.40;53.65
69731;SHT31;56996;48.138;11.538;2022-09-09T13:16:05;22.35;53.83
69731;SHT31;56996;48.138;11.538;2022-09-09T13:18:45;22.29;53.95
69731;SHT31;56996;48.138;11.538;2022-09-09T13:21:13;22.22;54.11
69731;SHT31;56996;48.138;11.538;2022-09-09T13:23:40;22.24;54.16
69731;SHT31;56996;48.138;11.538;2022-09-09T13:26:24;22.36;54.26
69731;SHT31;56996;48.138;11.538;2022-09-09T13:28:53;22.49;53.80
69731;SHT31;56996;48.138;11.538;2022-09-09T13:31:22;22.57;53.42
69731;SHT31;56996;48.138;11.538;2022-09-09T13:33:55;22.59;53.16
69731;SHT31;56996;48.138;11.538;2022-09-09T13:36:29;22.59;53.21
69731;SHT31;56996;48.138;11.538;2022-09-09T13:38:59;22.59;53.19
69731;SHT31;56996;48.138;11.538;2022-09-09T13:41:33;22.45;53.20
69731;SHT31;56996;48.138;11.538;2022-09-09T13:44:20;22.29;53.44
69731;SHT31;56996;48.138;11.538;2022-09-09T13:49:36;22.07;53.50
69731;SHT31;56996;48.138;11.538;2022-09-09T13:52:09;21.97;53.68
69731;SHT31;56996;48.138;11.538;2022-09-09T13:54:40;21.87;53.69
69731;SHT31;56996;48.138;11.538;2022-09-09T13:57:14;21.72;53.71
69731;SHT31;56996;48.138;11.538;2022-09-09T13:59:51;21.57;54.14
69731;SHT31;56996;48.138;11.538;2022-09-09T14:02:36;21.43;54.54
69731;SHT31;56996;48.138;11.538;2022-09-09T14:05:05;21.34;54.87
69731;SHT31;56996;48.138;11.538;2022-09-09T14:07:32;21.31;55.19
69731;SHT31;56996;48.138;11.538;2022-09-09T14:09:59;21.32;55.22
69731;SHT31;56996;48.138;11.538;2022-09-09T14:12:26;21.24;55.12
69731;SHT31;56996;48.138;11.538;2022-09-09T14:14:53;21.17;55.32
69731;SHT31;56996;48.138;11.538;2022-09-09T14:17:20;21.15;55.34
69731;SHT31;56996;48.138;11.538;2022-09-09T14:19:48;21.19;55.25
69731;SHT31;56996;48.138;11.538;2022-09-09T14:22:15;21.11;55.30
69731;SHT31;56996;48.138;11.538;2022-09-09T14:24:41;21.03;55.65
69731;SHT31;56996;48.138;11.538;2022-09-09T14:27:08;21.05;55.69
69731;SHT31;56996;48.138;11.538;2022-09-09T14:29:35;21.05;55.78
69731;SHT31;56996;48.138;11.538;2022-09-09T14:32:02;21.10;55.92
69731;SHT31;56996;48.138;11.538;2022-09-09T14:34:29;21.10;55.86
69731;SHT31;56996;48.138;11.538;2022-09-09T14:36:58;21.08;55.94
69731;SHT31;56996;48.138;11.538;2022-09-09T14:39:25;21.13;55.89
69731;SHT31;56996;48.138;11.538;2022-09-09T14:41:52;21.15;55.70
69731;SHT31;56996;48.138;11.538;2022-09-09T14:44:19;21.11;55.72
69731;SHT31;56996;48.138;11.538;2022-09-09T14:46:45;21.11;55.56
69731;SHT31;56996;48.138;11.538;2022-09-09T14:49:12;21.05;55.10
69731;SHT31;56996;48.138;11.538;2022-09-09T14:51:39;20.98;55.14
69731;SHT31;56996;48.138;11.538;2022-09-09T14:54:06;21.00;55.41
69731;SHT31;56996;48.138;11.538;2022-09-09T14:56:32;20.98;55.28
69731;SHT31;56996;48.138;11.538;2022-09-09T14:59:03;20.96;55.40
69731;SHT31;56996;48.138;11.538;2022-09-09T15:01:30;20.91;55.35
69731;SHT31;56996;48.138;11.538;2022-09-09T15:03:59;20.83;55.51
69731;SHT31;56996;48.138;11.538;2022-09-09T15:06:30;20.81;55.78
69731;SHT31;56996;48.138;11.538;2022-09-09T15:09:00;20.86;55.72
69731;SHT31;56996;48.138;11.538;2022-09-09T15:11:28;20.87;55.41
69731;SHT31;56996;48.138;11.538;2022-09-09T15:13:58;20.82;55.17
69731;SHT31;56996;48.138;11.538;2022-09-09T15:16:25;20.77;55.25
69731;SHT31;56996;48.138;11.538;2022-09-09T15:18:54;20.72;55.34
69731;SHT31;56996;48.138;11.538;2022-09-09T15:21:25;20.76;55.34
69731;SHT31;56996;48.138;11.538;2022-09-09T15:23:55;20.80;55.21
69731;SHT31;56996;48.138;11.538;2022-09-09T15:26:23;20.78;54.99
69731;SHT31;56996;48.138;11.538;2022-09-09T15:28:51;20.77;55.07
69731;SHT31;56996;48.138;11.538;2022-09-09T15:31:28;20.77;55.00
69731;SHT31;56996;48.138;11.538;2022-09-09T15:33:57;20.76;54.92
69731;SHT31;56996;48.138;11.538;2022-09-09T15:36:28;20.67;54.91
69731;SHT31;56996;48.138;11.538;2022-09-09T15:39:04;20.57;55.17
69731;SHT31;56996;48.138;11.538;2022-09-09T15:41:39;20.51;55.21
69731;SHT31;56996;48.138;11.538;2022-09-09T15:44:06;20.49;55.36
69731;SHT31;56996;48.138;11.538;2022-09-09T15:46:35;20.49;55.37
69731;SHT31;56996;48.138;11.538;2022-09-09T15:51:39;20.61;55.03
69731;SHT31;56996;48.138;11.538;2022-09-09T15:54:10;20.63;54.65
69731;SHT31;56996;48.138;11.538;2022-09-09T15:56:45;20.62;54.41
69731;SHT31;56996;48.138;11.538;2022-09-09T15:59:15;20.64;54.38
69731;SHT31;56996;48.138;11.538;2022-09-09T16:01:42;20.64;54.13
69731;SHT31;56996;48.138;11.538;2022-09-09T16:04:10;20.61;54.05
69731;SHT31;56996;48.138;11.538;2022-09-09T16:06:37;20.53;54.24
69731;SHT31;56996;48.138;11.538;2022-09-09T16:09:06;20.50;54.55
69731;SHT31;56996;48.138;11.538;2022-09-09T16:11:35;20.48;54.60
69731;SHT31;56996;48.138;11.538;2022-09-09T16:14:04;20.44;54.56
69731;SHT31;56996;48.138;11.538;2022-09-09T16:16:33;20.36;54.38
69731;SHT31;56996;48.138;11.538;2022-09-09T16:19:05;20.31;54.32
69731;SHT31;56996;48.138;11.538;2022-09-09T16:21:37;20.30;54.18
69731;SHT31;56996;48.138;11.538;2022-09-09T16:24:14;20.30;54.10
69731;SHT31;56996;48.138;11.538;2022-09-09T16:26:45;20.31;54.09
69731;SHT31;56996;48.138;11.538;2022-09-09T16:29:15;20.34;53.92
69731;SHT31;56996;48.138;11.538;2022-09-09T16:31:44;20.32;53.70
69731;SHT31;56996;48.138;11.538;2022-09-09T16:34:13;20.27;53.44
69731;SHT31;56996;48.138;11.538;2022-09-09T16:36:42;20.22;53.29
69731;SHT31;56996;48.138;11.538;2022-09-09T16:39:14;20.16;53.61
69731;SHT31;56996;48.138;11.538;2022-09-09T16:41:44;20.16;53.62
69731;SHT31;56996;48.138;11.538;2022-09-09T16:44:14;20.14;53.38
69731;SHT31;56996;48.138;11.538;2022-09-09T16:46:45;20.10;53.75
69731;SHT31;56996;48.138;11.538;2022-09-09T16:49:15;20.07;53.96
69731;SHT31;56996;48.138;11.538;2022-09-09T16:51:43;20.01;54.30
69731;SHT31;56996;48.138;11.538;2022-09-09T16:54:16;19.95;54.37
69731;SHT31;56996;48.138;11.538;2022-09-09T16:56:45;19.88;54.45
69731;SHT31;56996;48.138;11.538;2022-09-09T16:59:15;19.79;54.44
69731;SHT31;56996;48.138;11.538;2022-09-09T17:01:47;19.66;54.54
69731;SHT31;56996;48.138;11.538;2022-09-09T17:04:26;19.54;54.77
69731;SHT31;56996;48.138;11.538;2022-09-09T17:06:54;19.47;55.01
69731;SHT31;56996;48.138;11.538;2022-09-09T17:09:24;19.41;55.22
69731;SHT31;56996;48.138;11.538;2022-09-09T17:11:55;19.34;55.60
69731;SHT31;56996;48.138;11.538;2022-09-09T17:14:22;19.26;55.96
69731;SHT31;56996;48.138;11.538;2022-09-09T17:16:50;19.20;56.41
69731;SHT31;56996;48.138;11.538;2022-09-09T17:19:17;19.15;56.77
69731;SHT31;56996;48.138;11.538;2022-09-09T17:21:44;19.11;57.12
69731;SHT31;56996;48.138;11.538;2022-09-09T17:24:33;19.04;57.56
69731;SHT31;56996;48.138;11.538;2022-09-09T17:27:01;18.97;57.95
69731;SHT31;56996;48.138;11.538;2022-09-09T17:29:28;18.91;58.42
69731;SHT31;56996;48.138;11.538;2022-09-09T17:31:55;18.84;58.79
69731;SHT31;56996;48.138;11.538;2022-09-09T17:34:22;18.80;59.03
69731;SHT31;56996;48.138;11.538;2022-09-09T17:36:50;18.75;59.32
69731;SHT31;56996;48.138;11.538;2022-09-09T17:39:18;18.70;59.56
69731;SHT31;56996;48.138;11.538;2022-09-09T17:41:45;18.67;59.75
69731;SHT31;56996;48.138;11.538;2022-09-09T17:44:12;18.63;59.95
69731;SHT31;56996;48.138;11.538;2022-09-09T17:46:39;18.59;60.19
69731;SHT31;56996;48.138;11.538;2022-09-09T17:49:09;18.52;60.42
69731;SHT31;56996;48.138;11.538;2022-09-09T17:51:38;18.50;60.61
69731;SHT31;56996;48.138;11.538;2022-09-09T17:54:09;18.48;60.72
69731;SHT31;56996;48.138;11.538;2022-09-09T17:56:41;18.44;60.85
69731;SHT31;56996;48.138;11.538;2022-09-09T17:59:10;18.42;60.97